This is the latest recevied weather packets stored in our database for station/object K5IDL. If no packets are shown the sender has not sent any weather packets the latest 10 day(s).
| Time | Temp. | Humidity | Pressure | Rain* | Wind** | Luminosity | Snow |
|---|---|---|---|---|---|---|---|
| 1778080270 | 12.78° C | 82% | 1016 hPa | 0 mm | - | 29 W/m² | - |
| 1778079967 | 12.78° C | 83% | 1015 hPa | 0 mm | - | 51 W/m² | - |
| 1778079663 | 12.78° C | 82% | 1015.5 hPa | 0 mm | - | 33 W/m² | - |
| 1778079360 | 12.78° C | 82% | 1015.7 hPa | 0 mm | - | 34 W/m² | - |
| 1778079058 | 12.78° C | 81% | 1015.3 hPa | 0 mm | - | 53 W/m² | - |
| 1778078754 | 12.78° C | 81% | 1015.5 hPa | 0 mm | - | 45 W/m² | - |
| 1778078451 | 12.78° C | 81% | 1015.9 hPa | 0 mm | - | 40 W/m² | - |
| 1778078149 | 12.78° C | 81% | 1015.7 hPa | 0 mm | - | 32 W/m² | - |
| 1778077847 | 12.78° C | 80% | 1015.9 hPa | 0 mm | - | 27 W/m² | - |
| 1778077545 | 12.78° C | 81% | 1015.4 hPa | 0 mm | - | 36 W/m² | - |
| 1778077243 | 12.78° C | 82% | 1015.4 hPa | 0 mm | - | 60 W/m² | - |
| 1778076940 | 12.78° C | 81% | 1015 hPa | 0 mm | - | 51 W/m² | - |
| 1778076638 | 12.78° C | 81% | 1015.2 hPa | 0 mm | - | 45 W/m² | - |
| 1778076335 | 12.78° C | 82% | 1015 hPa | 0 mm | - | 37 W/m² | - |
| 1778076033 | 12.22° C | 82% | 1014.7 hPa | 0 mm | - | 36 W/m² | - |
| 1778075729 | 12.78° C | 81% | 1014.9 hPa | 0 mm | - | 28 W/m² | - |
| 1778075425 | 12.78° C | 82% | 1014.7 hPa | 0 mm | - | 36 W/m² | - |
| 1778075122 | 12.78° C | 82% | 1014.9 hPa | 0 mm | - | 34 W/m² | - |
| 1778074818 | 12.78° C | 83% | 1014.6 hPa | 0 mm | - | 32 W/m² | - |
| 1778074515 | 12.22° C | 84% | 1014.5 hPa | 0 mm | - | 43 W/m² | - |
| 1778074212 | 12.22° C | 84% | 1014.5 hPa | 0 mm | - | 23 W/m² | - |
| 1778073909 | 12.22° C | 85% | 1014.3 hPa | 0 mm | - | 20 W/m² | - |
| 1778073607 | 12.22° C | 85% | 1014.4 hPa | 0 mm | - | 20 W/m² | - |
| 1778073304 | 12.22° C | 86% | 1014.2 hPa | 0 mm | - | 16 W/m² | - |
| 1778073000 | 12.22° C | 85% | 1014.3 hPa | 0 mm | - | 16 W/m² | - |
* Rain latest hour (hover to see other rain measurements)
** Current wind speed in m/s (hover to see current wind gust speed)